Isak Quaison

Chefscout - Malmo FF
4 Apr 2028
Dienstag
Verarbeitung

Persönlichkeit

Anpassungsfähigkeit (15) Ehrgeiz (9) Kontroverse (18) Loyalität (3) Druck (13) Professionalität (1) Fairness (2) Temperament (1)

Profil

Trainerstil Demokratisch
Lizenz Kontinentale Pro
Entschlossenheit 7
Menschenführung 10
Motivation 8
Disziplin 7
Arbeitszufriedenheit
100%
Ermüdung
0%
Rolle Chefscout
Gehalt 56.2K p/W
Vertrag 14.03.2030

Leistung

Verhalten Gut
Trainingseffektivität
49%
Spielerentwicklung
60%
Verletzungsprävention
60%
Taktische Umsetzung
35%

Letzte Ereignisse

Empfahl ein Transferziel 7T her
Empfahl ein Transferziel 7T her
Empfahl ein Transferziel 7T her
Empfahl ein Transferziel 7T her
Empfahl ein Transferziel 7T her
Empfahl ein Transferziel 7T her
Spieler begutachtet 7T her
Spieler begutachtet 7T her

Aktuell beobachtet

103
Spieler Verein Status Fähigkeit Vertrauen Beobachtet Zuletzt beobachtet Letzte Stimme
Atsuki Ito Bolton Wanderers Aktiv 130 / 125 40% 1 01.04.2028 -
Iñaki Rupérez Real Sociedad Aktiv 129 / 131 40% 1 01.04.2028 -
Derry Murkin Derby County Aktiv 128 / 127 40% 2 30.03.2028 -
Alfie Gilchrist West Bromwich Albion Aktiv 134 / 131 40% 1 30.03.2028 -
Jacques Ekomié Wrexham Aktiv 137 / 135 40% 1 30.03.2028 -
Ben Chrisene Norwich City Aktiv 135 / 132 40% 3 28.03.2028 -
Florentino Luís Ipswich Town Aktiv 147 / 149 40% 1 28.03.2028 -
Juan Pablo Freytes Fluminense Aktiv 134 / 129 40% 1 21.03.2028 -
Milan van Ewijk Coventry City Aktiv 146 / 141 40% 1 21.03.2028 -
Agustín Giay Palmeiras Aktiv 151 / 144 40% 3 20.03.2028 -
Renan Lodi Atlético Mineiro Aktiv 134 / 131 40% 4 20.03.2028 -
Marcos Antonio Sport Recife Aktiv 145 / 148 40% 1 20.03.2028 -
Kayne Ramsay Charlton Athletic Aktiv 134 / 133 40% 1 13.03.2028 -
Eskil Edh AIK Verloren 127 / 125 40% 1 13.03.2028 -
Imrân Louza Watford Aktiv 134 / 138 40% 1 13.03.2028 -
Vitinho Botafogo Aktiv 140 / 135 40% 2 11.03.2028 -
Harrison Burrows Sheffield United Aktiv 126 / 128 40% 1 11.03.2028 -
Ronnie Edwards Queens Park Rangers Aktiv 143 / 137 40% 2 10.03.2028 -
Kristoffer Lund Birmingham Aktiv 139 / 133 40% 1 10.03.2028 -
Marlon Gomes Shakhtar Aktiv 140 / 137 40% 3 08.03.2028 -
Enrico Delprato Parma Aktiv 139 / 143 40% 2 08.03.2028 -
Lewis Gibson Preston Aktiv 132 / 133 40% 1 08.03.2028 -
Jack Hinshelwood Brighton Aktiv 159 / 156 40% 1 06.03.2028 -
Zico Buurmeester Leganés Aktiv 136 / 134 40% 1 06.03.2028 -
Sondre Langås Derby County Aktiv 129 / 132 40% 1 05.03.2028 -
Luke McNally Bristol City Aktiv 139 / 132 40% 1 05.03.2028 -
Gustavo Marques Bragantino Aktiv 119 / 135 40% 1 04.03.2028 -
Dara O'Shea Ipswich Town Aktiv 141 / 136 40% 1 04.03.2028 -
Nicolas Madsen Queens Park Rangers Aktiv 140 / 139 40% 1 03.03.2028 -
Emerson Royal Flamengo Aktiv 127 / 140 40% 1 03.03.2028 -
Tyrell Malacia Hull City Aktiv 144 / 141 40% 1 02.03.2028 -
Max Johnston Derby County Aktiv 135 / 130 40% 1 02.03.2028 -
Alexandro Bernabei Internacional Aktiv 148 / 132 40% 1 01.03.2028 -
Daniel Deac Seattle Sounders Aktiv 137 / 140 66% 1 28.02.2028 Befürworten
Guga Fluminense Aktiv 127 / 135 40% 1 28.02.2028 -
Di'Shon Bernard Sheffield Wednesday Aktiv 130 / 127 40% 1 28.02.2028 -
Max Cleworth Wrexham Aktiv 133 / 127 40% 1 28.02.2028 -
Fábio Carvalho Brentford Aktiv 138 / 144 40% 1 22.02.2028 -
Kévin Denkey FC Cincinnati Aktiv 117 / 123 40% 1 22.02.2028 -
Sifiso Mahlangu AIK Aktiv 112 / 112 66% 1 21.02.2028 Befürworten
Henry Mosquera Bragantino Aktiv 129 / 125 40% 1 03.02.2028 -
Benjamín Rollheiser Santos Aktiv 133 / 134 40% 1 03.02.2028 -
Luciano Jachfe Al Jazira Aktiv 126 / 121 40% 1 02.02.2028 -
Gabriel Batista Botafogo Verloren 142 / 129 40% 1 02.02.2028 -
Oleksandr Saputin Zorya Verloren 124 / 124 40% 1 02.02.2028 -
Denis Bouanga Nacional Aktiv 134 / 134 67% 1 01.02.2028 Befürworten
Duckens Nazon RC Strasbourg Aktiv 115 / 115 67% 1 01.02.2028 Befürworten
Simone Mazzocchi Cosenza Aktiv 119 / 114 40% 2 16.08.2027 -
Mikel Gogorza Minnesota United FC Aktiv 117 / 130 67% 1 09.08.2027 Befürworten
Joel Bagan Cardiff City Aktiv 113 / 119 40% 1 26.07.2027 -
Kieran Dowell Hull City Aktiv 133 / 121 40% 1 26.07.2027 -
Mohamed Belloumi Hull City Aktiv 138 / 138 40% 1 17.07.2027 -
Koki Saito Queens Park Rangers Aktiv 128 / 123 40% 1 17.07.2027 -
Donis Avdijaj Getafe Aktiv 117 / 117 66% 1 16.07.2027 Befürworten
Otis Caporusso OGC Nice Aktiv 93 / 99 30% 1 / 1m 05.05.2027 -
Lewis Bate Stockport County Aktiv 118 / 116 40% 1 01.04.2027 -
Derensili Sanches Fernandes Huddersfield Town Aktiv 123 / 125 40% 1 01.04.2027 -
Teddy Okou Al-Riyadh Aktiv 114 / 124 40% 1 31.03.2027 -
Lassina Traoré Shakhtar Aktiv 121 / 112 40% 1 30.03.2027 -
Moustafa Zeidan El Masry Aktiv 133 / 126 40% 4 28.03.2027 -
Alejo Cruz Rapid Wien Aktiv 126 / 114 40% 1 27.03.2027 -
Stanislav Ivanov Arda Aktiv 127 / 115 40% 1 27.03.2027 -
Chinedu Geoffrey Krylya Sovetov Aktiv 118 / 110 40% 2 26.03.2027 -
Leandro Godoy CSKA Sofia Aktiv 120 / 123 40% 2 26.03.2027 -
Léo Pereira CSKA Sofia Aktiv 129 / 121 40% 2 24.03.2027 -
Idris El Mizouni Leyton Orient Aktiv 110 / 113 40% 3 24.03.2027 -
Khalfan Obaid Al Ahli Aktiv 114 / 129 40% 1 24.03.2027 -
Filip Kubala Banik Ostrava Aktiv 114 / 112 40% 2 23.03.2027 -
Michal Kohút Banik Ostrava Aktiv 117 / 133 40% 1 23.03.2027 -
Ibrahim Bayesh Al Dhafra Aktiv 122 / 125 40% 2 22.03.2027 -
Igor Dmitriev Spartak Moscow Aktiv 118 / 129 40% 1 22.03.2027 -
Demba Seck Partizan Aktiv 116 / 112 40% 2 21.03.2027 -
Mohamed Ali Ben Romdhane Al Ahly Aktiv 132 / 132 40% 2 21.03.2027 -
Ramón Mierez Al Nasr Aktiv 138 / 116 40% 1 21.03.2027 -
Facundo Kruspzky Al Wahda Aktiv 125 / 122 40% 1 21.03.2027 -
Lukáš Červ Viktoria Plzen Aktiv 125 / 127 40% 3 20.03.2027 -
Khalid Al-Ghannam Al-Ettifaq Aktiv 128 / 123 40% 2 20.03.2027 -
Timi Max Elšnik Crvena Zvezda Aktiv 117 / 125 40% 1 20.03.2027 -
Emam Ashour Al Ahly Aktiv 136 / 140 40% 2 18.03.2027 -
Mirko Antonucci Cittadella Aktiv 127 / 118 40% 3 18.03.2027 -
Oleksandr Yatsyk Metalist Aktiv 115 / 127 40% 1 17.03.2027 -
Sipho Mbule Asante Kotoko Aktiv 109 / 114 40% 2 16.03.2027 -
Salah Mohsen El Masry Aktiv 106 / 119 40% 3 16.03.2027 -
Akinkunmi Amoo Partizan Aktiv 119 / 114 40% 2 15.03.2027 -
Brahima Diarra Al Wahda Aktiv 120 / 116 40% 2 15.03.2027 -
Dardan Shabanhaxhaj Rubin Aktiv 107 / 113 40% 1 15.03.2027 -
Marwan Ateya Al Ahly Aktiv 123 / 129 40% 3 14.03.2027 -
Jordan Larsson Al-Ettifaq Aktiv 114 / 131 40% 2 13.03.2027 -
Milan Vukotić Partizan Aktiv 115 / 115 40% 1 10.03.2027 -
Mamadou Coulibaly Al Jazira Aktiv 132 / 131 40% 1 10.03.2027 -
Prosper Obah Shakhtar Aktiv 139 / 128 40% 2 08.03.2027 -
Willy Agada Hapoel Haifa Aktiv 126 / 120 40% 2 08.03.2027 -
Armstrong Oko-Flex Levski Aktiv 130 / 115 40% 3 06.03.2027 -
Xeber Alkain Karpaty Aktiv 126 / 129 40% 2 05.03.2027 -
Andy Irving Sparta Prague Aktiv 143 / 131 40% 1 28.02.2027 -
Lukáš Vorlický Slovacko Aktiv 129 / 111 40% 1 25.02.2027 -
Hamdan Ismail Al Shaab Aktiv 105 / 124 40% 1 25.02.2027 -
Yehor Tverdokhlib LNZ Aktiv 109 / 108 40% 1 21.02.2027 -
John Mercado Sparta Prague Aktiv 127 / 115 40% 1 20.02.2027 -
Erick Marcus Ludogorets Aktiv 110 / 121 40% 1 01.02.2027 -
Christian Früchtl Red Bull Salzburg Aktiv 118 / 119 40% 1 13.08.2026 -
Aldo Pérez Guarani Aktiv 113 / 103 40% 1 13.08.2026 -
Anton Andersson Falkenberg Aktiv 96 / 98 62% 1 03.08.2026 Befürworten